Terminal Aerodrome Forecast
Issued by NWS

Home | Current Version | Previous Version | Text Only | Print | Product List | Glossary On
Versions: 1 2 3 4 5 6 7 8 9 10 11 12 13 14
000
FTUS42 KMLB 171123
TAFISM
TAF
KISM 171123Z 1712/1812 35008KT P6SM VCSH SCT015 SCT050 OVC080
      TEMPO 1712/1713 5SM SHRA BKN015
     FM171300 35011KT P6SM VCSH BKN012 OVC120
      TEMPO 1713/1716 BKN012
     FM171600 02013KT P6SM VCSH SCT025 BKN040
      TEMPO 1716/1718 3SM SHRA BKN025
     FM180300 36008KT P6SM SCT025 BKN050=

USA.gov is the U.S. government's official web portal to all federal, state and local government web resources and services.